createdAt,value
2019-02-19T00:00:52.719Z,3.97
2019-02-19T00:03:20.223Z,3.99
2019-02-19T00:05:47.327Z,3.97
2019-02-19T00:08:14.407Z,3.94
2019-02-19T00:10:41.614Z,3.84
2019-02-19T00:13:08.750Z,3.76
2019-02-19T00:15:35.913Z,3.69
2019-02-19T00:18:03.075Z,3.63
2019-02-19T00:20:31.296Z,3.64
2019-02-19T00:22:58.555Z,3.64
2019-02-19T00:25:26.074Z,3.59
2019-02-19T00:27:53.311Z,3.54
2019-02-19T00:30:20.475Z,3.54
2019-02-19T00:32:47.537Z,3.43
2019-02-19T00:35:14.726Z,3.38
2019-02-19T00:37:41.894Z,3.38
2019-02-19T00:40:09.045Z,3.42
2019-02-19T00:42:36.274Z,3.44
2019-02-19T00:45:04.034Z,3.42
2019-02-19T00:47:31.180Z,3.34
2019-02-19T00:49:58.264Z,3.28
2019-02-19T00:52:25.443Z,3.25
2019-02-19T00:54:52.553Z,3.23
2019-02-19T00:57:19.782Z,3.33
2019-02-19T00:59:46.944Z,3.31
2019-02-19T01:02:14.136Z,3.33
2019-02-19T01:04:41.352Z,3.31
2019-02-19T01:07:08.538Z,3.34
2019-02-19T01:09:35.737Z,3.36
2019-02-19T01:12:03.195Z,3.32
2019-02-19T01:14:30.424Z,3.35
2019-02-19T01:16:57.591Z,3.41
2019-02-19T01:19:24.790Z,3.37
2019-02-19T01:21:51.948Z,3.35
2019-02-19T01:24:19.136Z,3.35
2019-02-19T01:26:46.338Z,3.43
2019-02-19T01:29:13.493Z,3.48
2019-02-19T01:31:40.565Z,3.47
2019-02-19T01:34:07.747Z,3.46
2019-02-19T01:36:35.142Z,3.41
2019-02-19T01:39:03.425Z,3.35
2019-02-19T01:41:30.837Z,3.31
2019-02-19T01:43:58.539Z,3.31
2019-02-19T01:46:26.038Z,3.31
2019-02-19T01:48:53.209Z,3.26
2019-02-19T01:51:20.396Z,3.21
2019-02-19T01:53:47.545Z,3.14
2019-02-19T01:56:14.764Z,3.11
2019-02-19T01:58:41.940Z,3.02
2019-02-19T02:01:09.115Z,3.02
2019-02-19T02:03:36.315Z,2.97
2019-02-19T02:06:03.627Z,2.96
2019-02-19T02:08:30.809Z,2.95
2019-02-19T02:10:58.005Z,2.92
2019-02-19T02:13:25.097Z,2.92
2019-02-19T02:15:52.513Z,2.93
2019-02-19T02:18:19.899Z,2.96
2019-02-19T02:20:46.985Z,2.99
2019-02-19T02:23:14.433Z,3.00
2019-02-19T02:25:41.821Z,2.97
2019-02-19T02:28:08.999Z,2.97
2019-02-19T02:30:36.505Z,2.96
2019-02-19T02:33:03.688Z,2.99
2019-02-19T02:35:30.768Z,3.07
2019-02-19T02:37:58.183Z,3.11
2019-02-19T02:40:25.405Z,3.07
2019-02-19T02:42:52.494Z,3.01
2019-02-19T02:45:19.556Z,3.01
2019-02-19T02:47:46.620Z,3.03
2019-02-19T02:50:14.114Z,3.02
2019-02-19T02:52:41.262Z,2.96
2019-02-19T02:55:08.408Z,2.92
2019-02-19T02:57:35.564Z,2.90
2019-02-19T03:00:02.829Z,2.87
2019-02-19T03:02:30.106Z,2.87
2019-02-19T03:04:57.409Z,2.93
2019-02-19T03:07:29.269Z,2.97
2019-02-19T03:09:56.509Z,2.94
2019-02-19T03:12:23.690Z,2.85
2019-02-19T03:14:50.865Z,2.78
2019-02-19T03:17:18.014Z,2.71
2019-02-19T03:19:45.164Z,2.67
2019-02-19T03:22:12.379Z,2.65
2019-02-19T03:24:40.154Z,2.64
2019-02-19T03:27:07.333Z,2.66
2019-02-19T03:29:35.075Z,2.64
2019-02-19T03:32:02.255Z,2.61
2019-02-19T03:34:29.396Z,2.59
2019-02-19T03:36:56.824Z,2.60
2019-02-19T03:39:24.014Z,2.60
2019-02-19T03:41:51.088Z,2.59
2019-02-19T03:44:18.580Z,2.57
2019-02-19T03:46:45.770Z,2.54
2019-02-19T03:49:12.952Z,2.57
2019-02-19T03:51:40.478Z,2.56
2019-02-19T03:54:07.644Z,2.56
2019-02-19T03:56:34.918Z,2.63
2019-02-19T03:59:02.131Z,2.70
2019-02-19T04:01:29.301Z,2.72
2019-02-19T04:03:56.439Z,2.70
2019-02-19T04:06:23.629Z,2.69
2019-02-19T04:08:50.768Z,2.69
2019-02-19T04:11:18.050Z,2.69
2019-02-19T04:13:45.144Z,2.71
2019-02-19T04:16:20.813Z,2.79
2019-02-19T04:18:41.280Z,2.85
2019-02-19T04:21:08.477Z,2.92
2019-02-19T04:23:35.631Z,2.90
2019-02-19T04:26:02.801Z,2.95
2019-02-19T04:28:30.295Z,3.00
2019-02-19T04:30:57.460Z,2.97
2019-02-19T04:33:24.605Z,3.01
2019-02-19T04:35:51.731Z,3.01
2019-02-19T04:38:18.876Z,2.98
2019-02-19T04:40:46.055Z,2.97
2019-02-19T04:43:13.650Z,3.07
2019-02-19T04:45:40.888Z,3.27
2019-02-19T04:48:07.938Z,3.50
2019-02-19T04:50:35.294Z,3.71
2019-02-19T04:53:02.434Z,3.85
2019-02-19T04:55:29.693Z,3.93
2019-02-19T04:57:56.876Z,4.00
2019-02-19T05:00:23.948Z,4.10
2019-02-19T05:02:51.620Z,4.21
2019-02-19T05:05:18.768Z,4.27
2019-02-19T05:07:45.944Z,4.33
2019-02-19T05:10:13.150Z,4.36
2019-02-19T05:12:40.344Z,4.43
2019-02-19T05:15:07.824Z,4.50
2019-02-19T05:17:34.998Z,4.61
2019-02-19T05:20:02.180Z,4.63
2019-02-19T05:22:29.449Z,4.67
2019-02-19T05:24:56.628Z,4.70
2019-02-19T05:27:23.839Z,4.74
2019-02-19T05:29:50.990Z,4.78
2019-02-19T05:32:18.614Z,4.84
2019-02-19T05:34:45.795Z,4.90
2019-02-19T05:37:12.957Z,4.95
2019-02-19T05:39:40.127Z,4.98
2019-02-19T05:42:07.213Z,5.08
2019-02-19T05:44:34.398Z,5.17
2019-02-19T05:47:01.470Z,5.20
2019-02-19T05:49:28.635Z,5.19
2019-02-19T05:51:55.789Z,5.18
2019-02-19T05:54:23.074Z,5.12
2019-02-19T05:56:50.283Z,5.09
2019-02-19T05:59:17.620Z,5.04
2019-02-19T06:01:44.787Z,5.03
2019-02-19T06:04:12.029Z,5.02
2019-02-19T06:06:39.350Z,4.97
2019-02-19T06:09:06.805Z,4.86
2019-02-19T06:11:35.064Z,4.76
2019-02-19T06:14:02.232Z,4.70
2019-02-19T06:16:29.697Z,4.67
2019-02-19T06:18:56.934Z,4.67
2019-02-19T06:21:24.081Z,4.65
2019-02-19T06:23:52.789Z,4.71
2019-02-19T06:26:20.516Z,4.72
2019-02-19T06:28:47.597Z,4.73
2019-02-19T06:31:14.765Z,4.73
2019-02-19T06:33:41.970Z,4.71
2019-02-19T06:36:09.135Z,4.71
2019-02-19T06:38:36.308Z,4.72
2019-02-19T06:41:03.559Z,4.73
2019-02-19T06:43:30.860Z,4.81
2019-02-19T06:45:58.047Z,4.88
2019-02-19T06:48:25.237Z,4.98
2019-02-19T06:50:52.338Z,5.04
2019-02-19T06:53:19.624Z,5.05
2019-02-19T06:55:46.864Z,5.08
2019-02-19T06:58:14.006Z,5.12
2019-02-19T07:00:41.220Z,5.19
2019-02-19T07:03:36.945Z,5.32
2019-02-19T07:06:04.161Z,5.42
2019-02-19T07:08:31.340Z,5.51
2019-02-19T07:10:58.552Z,5.59
2019-02-19T07:13:25.781Z,5.71
2019-02-19T07:15:52.863Z,5.84
2019-02-19T07:18:21.193Z,5.94
2019-02-19T07:20:48.372Z,6.12
2019-02-19T07:23:15.552Z,6.23
2019-02-19T07:25:43.261Z,6.33
2019-02-19T07:28:10.420Z,6.40
2019-02-19T07:30:37.907Z,6.48
2019-02-19T07:33:05.092Z,6.50
2019-02-19T07:35:32.196Z,6.54
2019-02-19T07:37:59.403Z,6.53
2019-02-19T07:40:26.591Z,6.50
2019-02-19T07:42:53.756Z,6.48
2019-02-19T07:45:21.564Z,6.46
2019-02-19T07:47:48.922Z,6.52
2019-02-19T07:50:16.147Z,6.56
2019-02-19T07:52:43.253Z,6.58
2019-02-19T07:55:10.495Z,6.58
2019-02-19T07:57:37.578Z,6.59
2019-02-19T08:00:04.813Z,6.61
2019-02-19T08:02:32.020Z,6.61
2019-02-19T08:04:59.173Z,6.65
2019-02-19T08:07:26.360Z,6.61
2019-02-19T08:09:53.750Z,6.62
2019-02-19T08:12:20.904Z,6.62
2019-02-19T08:14:48.063Z,6.63
2019-02-19T08:17:15.175Z,6.64
2019-02-19T08:19:42.382Z,6.61
2019-02-19T08:22:09.533Z,6.60
2019-02-19T08:24:36.746Z,6.57
2019-02-19T08:27:04.258Z,6.55
2019-02-19T08:29:31.497Z,6.49
2019-02-19T08:31:58.851Z,6.41
2019-02-19T08:34:25.917Z,6.40
2019-02-19T08:36:53.135Z,6.40
2019-02-19T08:39:20.323Z,6.44
2019-02-19T08:41:47.487Z,6.48
2019-02-19T08:44:14.782Z,6.60
2019-02-19T08:46:41.969Z,6.65
2019-02-19T08:49:09.155Z,6.66
2019-02-19T08:51:36.363Z,6.63
2019-02-19T08:54:03.540Z,6.59
2019-02-19T08:56:31.056Z,6.57
2019-02-19T08:58:58.559Z,6.59
2019-02-19T09:01:26.626Z,6.63
2019-02-19T09:03:53.831Z,6.67
2019-02-19T09:06:21.030Z,6.75
2019-02-19T09:08:48.500Z,6.82
2019-02-19T09:11:15.709Z,6.89
2019-02-19T09:13:42.882Z,6.93
2019-02-19T09:16:10.146Z,6.96
2019-02-19T09:18:37.224Z,6.97
2019-02-19T09:21:04.628Z,7.12
2019-02-19T09:23:31.841Z,7.28
2019-02-19T09:25:59.303Z,7.29
2019-02-19T09:28:26.464Z,7.21
2019-02-19T09:30:53.872Z,7.16
2019-02-19T09:33:21.299Z,7.12
2019-02-19T09:35:48.366Z,7.08
2019-02-19T09:38:15.967Z,7.05
2019-02-19T09:40:43.148Z,7.01
2019-02-19T09:43:10.373Z,7.00
2019-02-19T09:45:37.585Z,6.99
2019-02-19T09:48:04.685Z,7.06
2019-02-19T09:50:31.755Z,7.16
2019-02-19T09:53:00.247Z,7.23
2019-02-19T09:55:27.643Z,7.28
2019-02-19T09:57:54.772Z,7.39
2019-02-19T10:00:22.008Z,7.42
2019-02-19T10:02:49.166Z,7.38
2019-02-19T10:05:16.646Z,7.38
2019-02-19T10:07:43.861Z,7.33
2019-02-19T10:10:12.759Z,7.31
2019-02-19T10:12:39.947Z,7.29
2019-02-19T10:15:08.469Z,7.27
2019-02-19T10:17:35.653Z,7.28
2019-02-19T10:20:03.201Z,7.36
2019-02-19T10:22:30.450Z,7.50
2019-02-19T10:24:57.705Z,7.57
2019-02-19T10:27:24.829Z,7.56
2019-02-19T10:29:52.055Z,7.67
2019-02-19T10:32:19.450Z,7.82
2019-02-19T10:34:46.624Z,8.00
2019-02-19T10:37:13.843Z,8.27
2019-02-19T10:39:41.043Z,8.49
2019-02-19T10:42:08.303Z,8.74
2019-02-19T10:44:35.396Z,9.25
2019-02-19T10:47:02.621Z,9.86
2019-02-19T10:49:29.826Z,10.26
2019-02-19T10:51:57.063Z,10.51
2019-02-19T10:54:24.231Z,10.73
2019-02-19T10:56:51.929Z,10.86
2019-02-19T10:59:19.135Z,10.84
2019-02-19T11:01:46.300Z,10.78
2019-02-19T11:04:13.515Z,10.70
2019-02-19T11:06:40.795Z,10.72
2019-02-19T11:09:07.964Z,10.92
2019-02-19T11:11:35.228Z,11.25
2019-02-19T11:14:02.477Z,11.53
2019-02-19T11:16:29.652Z,11.72
2019-02-19T11:18:56.815Z,12.14
2019-02-19T11:21:24.044Z,12.62
2019-02-19T11:23:51.257Z,13.02
2019-02-19T11:26:18.331Z,13.06
2019-02-19T11:28:45.561Z,12.92
2019-02-19T11:31:12.786Z,12.83
2019-02-19T11:33:40.260Z,12.77
2019-02-19T11:36:07.506Z,12.97
2019-02-19T11:38:34.698Z,13.20
2019-02-19T11:41:01.908Z,13.30
2019-02-19T11:43:29.197Z,13.35
2019-02-19T11:45:56.438Z,13.32
2019-02-19T11:48:23.649Z,13.08
2019-02-19T11:50:50.786Z,12.71
2019-02-19T11:53:17.960Z,12.43
2019-02-19T11:55:45.168Z,12.17
2019-02-19T11:58:12.431Z,11.76
2019-02-19T12:00:40.224Z,11.46
2019-02-19T12:03:07.294Z,11.23
2019-02-19T12:05:34.759Z,11.15
2019-02-19T12:08:01.868Z,11.03
2019-02-19T12:10:29.057Z,10.86
2019-02-19T12:12:56.321Z,10.71
2019-02-19T12:15:23.564Z,10.63
2019-02-19T12:17:50.925Z,10.61
2019-02-19T12:20:26.112Z,10.67
2019-02-19T12:22:53.339Z,10.71
2019-02-19T12:25:20.518Z,10.81
2019-02-19T12:27:48.043Z,10.85
2019-02-19T12:30:15.212Z,10.83
2019-02-19T12:32:42.420Z,10.85
2019-02-19T12:35:09.952Z,10.76
2019-02-19T12:37:37.107Z,10.63
2019-02-19T12:40:04.948Z,10.59
2019-02-19T12:42:32.178Z,10.53
2019-02-19T12:44:59.683Z,10.69
2019-02-19T12:47:27.196Z,11.04
2019-02-19T12:49:54.620Z,11.47
2019-02-19T12:52:22.071Z,11.86
2019-02-19T12:54:49.147Z,12.23
2019-02-19T12:57:16.496Z,12.50
2019-02-19T12:59:43.659Z,12.70
2019-02-19T13:02:10.824Z,13.06
2019-02-19T13:04:38.353Z,13.46
2019-02-19T13:07:05.910Z,13.65
2019-02-19T13:09:33.099Z,13.68
2019-02-19T13:12:00.343Z,13.58
2019-02-19T13:14:27.507Z,13.25
2019-02-19T13:16:55.003Z,12.92
2019-02-19T13:19:22.224Z,12.55
2019-02-19T13:21:49.429Z,12.10
2019-02-19T13:24:16.995Z,11.89
2019-02-19T13:26:44.432Z,11.60
2019-02-19T13:29:11.686Z,11.25
2019-02-19T13:31:38.793Z,11.08
2019-02-19T13:34:06.003Z,11.02
2019-02-19T13:36:33.154Z,10.96
2019-02-19T13:39:00.403Z,10.95
2019-02-19T13:41:27.955Z,10.93
2019-02-19T13:43:55.269Z,11.14
2019-02-19T13:46:22.492Z,11.31
2019-02-19T13:48:49.717Z,11.36
2019-02-19T13:51:16.875Z,11.39
2019-02-19T13:53:52.374Z,11.47
2019-02-19T13:56:19.558Z,11.74
2019-02-19T13:58:46.769Z,11.71
2019-02-19T14:01:14.327Z,11.70
2019-02-19T14:03:41.529Z,11.72
2019-02-19T14:06:08.640Z,11.68
2019-02-19T14:08:35.914Z,11.77
2019-02-19T14:11:03.143Z,11.93
2019-02-19T14:13:30.359Z,11.76
2019-02-19T14:16:13.940Z,11.54
2019-02-19T14:18:46.946Z,11.36
2019-02-19T14:21:32.421Z,11.40
2019-02-19T14:24:25.027Z,11.55
2019-02-19T14:27:10.139Z,11.73
2019-02-19T14:29:57.166Z,11.97
2019-02-19T14:32:42.571Z,12.16
2019-02-19T14:35:27.993Z,12.45
2019-02-19T14:38:15.567Z,12.61
2019-02-19T14:41:00.785Z,12.77
2019-02-19T14:43:47.822Z,12.75
2019-02-19T14:46:33.247Z,12.69
2019-02-19T14:49:34.103Z,12.54
2019-02-19T14:52:11.817Z,12.38
2019-02-19T14:54:57.312Z,12.28
2019-02-19T14:57:51.837Z,12.01
2019-02-19T15:00:56.850Z,11.84
2019-02-19T15:03:44.272Z,11.72
2019-02-19T15:06:34.225Z,11.56
2019-02-19T15:09:19.337Z,11.33
2019-02-19T15:12:04.580Z,11.24
2019-02-19T15:14:43.855Z,11.15
2019-02-19T15:17:33.300Z,10.98
2019-02-19T15:20:38.590Z,10.84
2019-02-19T15:23:24.101Z,10.79
2019-02-19T15:26:13.662Z,10.67
2019-02-19T15:28:59.379Z,10.60
2019-02-19T15:31:58.009Z,10.61
2019-02-19T15:34:36.861Z,10.50
2019-02-19T15:37:33.146Z,10.74
2019-02-19T15:40:18.246Z,10.61
2019-02-19T15:43:03.406Z,10.48
2019-02-19T15:45:49.033Z,10.48
2019-02-19T15:48:34.070Z,10.38
2019-02-19T15:51:23.488Z,10.52
2019-02-19T15:54:19.703Z,10.67
2019-02-19T15:57:00.933Z,10.63
2019-02-19T15:59:46.588Z,10.52
2019-02-19T16:02:33.418Z,10.81
2019-02-19T16:05:29.585Z,10.83
2019-02-19T16:08:03.888Z,10.52
2019-02-19T16:10:43.171Z,10.31
2019-02-19T16:13:16.238Z,10.23
2019-02-19T16:16:03.345Z,10.04
2019-02-19T16:18:48.672Z,10.22
2019-02-19T16:21:33.785Z,10.17
2019-02-19T16:24:20.588Z,10.04
2019-02-19T16:26:56.028Z,9.90
2019-02-19T16:29:48.617Z,9.73
2019-02-19T16:32:40.755Z,9.47
2019-02-19T16:35:27.693Z,9.17
2019-02-19T16:38:02.590Z,8.88
2019-02-19T16:41:01.210Z,8.66
2019-02-19T16:43:50.766Z,8.45
2019-02-19T16:46:35.961Z,8.20
2019-02-19T16:49:25.569Z,8.02
2019-02-19T16:52:00.352Z,7.83
2019-02-19T16:55:05.275Z,7.62
2019-02-19T16:57:41.062Z,7.55
2019-02-19T17:00:29.440Z,7.47
2019-02-19T17:03:14.806Z,7.46
2019-02-19T17:05:57.372Z,7.30
2019-02-19T17:08:47.673Z,7.19
2019-02-19T17:11:23.146Z,7.14
2019-02-19T17:14:01.304Z,6.98
2019-02-19T17:16:59.957Z,6.87
2019-02-19T17:19:40.162Z,6.83
2019-02-19T17:22:42.149Z,6.75
2019-02-19T17:25:23.448Z,6.62
2019-02-19T17:28:19.476Z,6.56
2019-02-19T17:31:04.718Z,6.50
2019-02-19T17:33:50.161Z,6.48
2019-02-19T17:36:40.006Z,6.45
2019-02-19T17:39:41.670Z,6.31
2019-02-19T17:42:27.067Z,6.31
2019-02-19T17:45:01.442Z,6.31
2019-02-19T17:47:46.566Z,6.27
2019-02-19T17:50:38.224Z,6.27
2019-02-19T17:53:20.679Z,6.21
2019-02-19T17:56:01.557Z,6.21
2019-02-19T17:58:34.550Z,6.08
2019-02-19T18:01:33.199Z,6.03
2019-02-19T18:04:14.276Z,6.13
2019-02-19T18:07:11.421Z,6.09
2019-02-19T18:10:10.646Z,5.94
2019-02-19T18:13:00.860Z,5.86
2019-02-19T18:15:44.697Z,5.90
2019-02-19T18:18:27.310Z,5.91
2019-02-19T18:20:54.368Z,5.85
2019-02-19T18:23:21.558Z,5.78
2019-02-19T18:25:48.725Z,5.78
2019-02-19T18:28:15.949Z,5.72
2019-02-19T18:30:45.144Z,5.68
2019-02-19T18:33:12.292Z,5.76
2019-02-19T18:35:39.677Z,5.83
2019-02-19T18:38:06.866Z,5.79
2019-02-19T18:40:34.030Z,5.68
2019-02-19T18:43:01.238Z,5.60
2019-02-19T18:45:28.429Z,5.52
2019-02-19T18:47:55.922Z,5.51
2019-02-19T18:50:23.120Z,5.47
2019-02-19T18:52:50.316Z,5.38
2019-02-19T18:55:17.392Z,5.36
2019-02-19T18:57:44.599Z,5.29
2019-02-19T19:00:11.794Z,5.37
2019-02-19T19:02:38.988Z,5.41
2019-02-19T19:05:06.287Z,5.39
2019-02-19T19:07:33.617Z,5.49
2019-02-19T19:10:00.811Z,5.50
2019-02-19T19:12:28.153Z,5.48
2019-02-19T19:14:55.341Z,5.37
2019-02-19T19:17:22.471Z,5.47
2019-02-19T19:19:49.731Z,5.64
2019-02-19T19:22:16.909Z,5.65
2019-02-19T19:24:44.166Z,5.77
2019-02-19T19:27:11.353Z,5.84
2019-02-19T19:29:38.541Z,5.72
2019-02-19T19:32:06.113Z,5.51
2019-02-19T19:34:33.313Z,5.40
2019-02-19T19:37:00.419Z,5.28
2019-02-19T19:39:27.612Z,5.16
2019-02-19T19:41:54.763Z,5.07
2019-02-19T19:44:21.977Z,4.96
2019-02-19T19:46:49.211Z,4.86
2019-02-19T19:49:16.476Z,4.71
2019-02-19T19:51:43.708Z,4.59
2019-02-19T19:54:10.895Z,4.50
2019-02-19T19:56:38.104Z,4.56
2019-02-19T19:59:05.275Z,4.54
2019-02-19T20:01:32.511Z,4.45
2019-02-19T20:03:59.685Z,4.41
2019-02-19T20:06:26.902Z,4.37
2019-02-19T20:08:54.086Z,4.35
2019-02-19T20:11:21.348Z,4.37
2019-02-19T20:13:48.841Z,4.33
2019-02-19T20:16:16.482Z,4.28
2019-02-19T20:18:43.694Z,4.21
2019-02-19T20:21:10.939Z,4.18
2019-02-19T20:23:38.045Z,4.11
2019-02-19T20:26:05.259Z,4.03
2019-02-19T20:28:32.494Z,3.96
2019-02-19T20:30:59.695Z,3.95
2019-02-19T20:33:26.891Z,3.92
2019-02-19T20:35:53.980Z,3.91
2019-02-19T20:38:21.218Z,3.90
2019-02-19T20:40:49.039Z,3.86
2019-02-19T20:43:16.936Z,3.79
2019-02-19T20:45:44.132Z,3.77
2019-02-19T20:48:11.568Z,3.78
2019-02-19T20:50:38.700Z,3.80
2019-02-19T20:53:06.269Z,3.83
2019-02-19T20:55:36.936Z,3.89
2019-02-19T20:58:02.655Z,3.88
2019-02-19T21:00:29.781Z,3.86
2019-02-19T21:02:57.289Z,3.82
2019-02-19T21:05:24.349Z,3.77
2019-02-19T21:07:51.590Z,3.81
2019-02-19T21:10:18.730Z,3.86
2019-02-19T21:12:45.955Z,3.91
2019-02-19T21:15:13.903Z,3.97
2019-02-19T21:17:41.122Z,3.92
2019-02-19T21:20:08.422Z,3.81
2019-02-19T21:22:35.632Z,3.76
2019-02-19T21:25:02.965Z,3.76
2019-02-19T21:27:30.197Z,3.76
2019-02-19T21:29:57.416Z,3.71
2019-02-19T21:32:24.648Z,3.79
2019-02-19T21:34:51.842Z,3.83
2019-02-19T21:37:19.211Z,3.75
2019-02-19T21:39:46.791Z,3.67
2019-02-19T21:42:14.051Z,3.69
2019-02-19T21:44:41.289Z,3.88
2019-02-19T21:47:08.772Z,3.98
2019-02-19T21:49:36.131Z,4.07
2019-02-19T21:52:03.371Z,4.05
2019-02-19T21:54:30.605Z,4.10
2019-02-19T21:56:57.854Z,4.18
2019-02-19T21:59:25.172Z,4.13
2019-02-19T22:01:52.476Z,4.17
2019-02-19T22:04:20.011Z,4.18
2019-02-19T22:06:47.278Z,4.10
2019-02-19T22:09:14.601Z,3.99
2019-02-19T22:11:41.958Z,3.92
2019-02-19T22:14:09.237Z,3.82
2019-02-19T22:16:36.516Z,3.73
2019-02-19T22:19:04.073Z,3.65
2019-02-19T22:21:49.535Z,3.60
2019-02-19T22:24:33.827Z,3.53
2019-02-19T22:27:01.221Z,3.39
2019-02-19T22:29:28.496Z,3.26
2019-02-19T22:31:55.742Z,3.15
2019-02-19T22:34:22.999Z,3.08
2019-02-19T22:36:50.193Z,3.00
2019-02-19T22:39:17.355Z,2.99
2019-02-19T22:41:44.611Z,3.02
2019-02-19T22:44:12.315Z,2.99
2019-02-19T22:46:39.822Z,2.95
2019-02-19T22:49:07.043Z,2.85
2019-02-19T22:51:34.192Z,2.78
2019-02-19T22:54:19.545Z,2.76
2019-02-19T22:56:46.861Z,2.68
2019-02-19T22:59:14.068Z,2.63
2019-02-19T23:02:11.010Z,2.57
2019-02-19T23:04:38.228Z,2.50
2019-02-19T23:07:05.652Z,2.45
2019-02-19T23:09:32.925Z,2.44
2019-02-19T23:12:00.091Z,2.51
2019-02-19T23:14:27.245Z,2.67
2019-02-19T23:16:54.508Z,2.81
2019-02-19T23:19:24.475Z,2.90
2019-02-19T23:21:51.661Z,3.14
2019-02-19T23:24:18.871Z,3.23
2019-02-19T23:26:46.038Z,3.15
2019-02-19T23:29:13.202Z,3.08
2019-02-19T23:31:40.335Z,3.01
2019-02-19T23:34:07.827Z,2.91
2019-02-19T23:36:41.922Z,2.77
2019-02-19T23:39:09.460Z,2.62
2019-02-19T23:41:36.548Z,2.62
2019-02-19T23:44:03.980Z,2.68
2019-02-19T23:46:31.164Z,2.76
2019-02-19T23:48:58.332Z,2.84
2019-02-19T23:51:25.540Z,2.77
2019-02-19T23:53:52.727Z,2.69
2019-02-19T23:56:19.886Z,2.65
2019-02-19T23:58:47.121Z,2.70
